createdAt,value
2018-05-09T00:48:25.048Z,94360.71
2018-05-09T00:50:59.089Z,94353.05
2018-05-09T00:53:32.344Z,94360.98
2018-05-09T00:56:06.385Z,94356.21
2018-05-09T00:58:39.644Z,94355.36
2018-05-09T02:32:20.040Z,94315.16
2018-05-09T02:34:54.088Z,94315.34
2018-05-09T02:37:27.360Z,94316.38
2018-05-09T02:40:00.614Z,94312.52
2018-05-09T02:42:33.911Z,94314.23
2018-05-09T02:45:07.177Z,94320.06
2018-05-09T03:46:15.167Z,94331.17
2018-05-09T03:48:48.432Z,94333.57
2018-05-09T03:51:22.474Z,94336.02
2018-05-09T03:53:57.454Z,94338.09
2018-05-09T03:56:32.274Z,94331.28
2018-05-09T03:59:05.594Z,94329.50
2018-05-09T04:30:59.840Z,94329.35
2018-05-09T04:33:33.098Z,94329.07
2018-05-09T04:36:07.140Z,94330.63
2018-05-09T04:38:40.400Z,94326.38
2018-05-09T04:41:13.792Z,94332.95
2018-05-09T04:43:47.049Z,94331.30
2018-05-09T04:46:20.367Z,94339.20
2018-05-09T04:48:53.625Z,94337.70
2018-05-09T04:51:26.916Z,94337.55
2018-05-09T04:54:00.151Z,94334.88
2018-05-09T04:56:33.424Z,94333.20
2018-05-09T04:59:06.685Z,94328.16
2018-05-09T05:01:39.974Z,94328.07
2018-05-09T05:04:13.223Z,94326.14
2018-05-09T05:06:46.504Z,94324.63
2018-05-09T05:09:19.770Z,94321.34
2018-05-09T05:11:53.048Z,94315.47
2018-05-09T05:14:26.325Z,94312.14
2018-05-09T05:16:59.600Z,94314.57
2018-05-09T05:19:32.856Z,94317.38
2018-05-09T05:22:06.145Z,94320.34
2018-05-09T05:24:39.388Z,94318.38
2018-05-09T05:27:12.668Z,94324.95
2018-05-09T05:29:45.927Z,94319.88
2018-05-09T05:32:19.201Z,94326.11
2018-05-09T05:34:52.700Z,94329.81
2018-05-09T05:37:25.953Z,94331.16
2018-05-09T05:39:59.339Z,94335.89
2018-05-09T05:42:32.591Z,94332.63
2018-05-09T05:45:06.121Z,94336.67
2018-05-09T05:47:39.267Z,94332.84
2018-05-09T05:50:12.631Z,94336.80
2018-05-09T05:52:45.896Z,94340.32
2018-05-09T05:55:19.172Z,94338.64
2018-05-09T05:57:52.431Z,94347.55
2018-05-09T06:00:25.815Z,94343.84
2018-05-09T06:02:59.076Z,94341.34
2018-05-09T06:05:32.339Z,94344.69
2018-05-09T06:08:05.617Z,94343.34
2018-05-09T06:10:38.884Z,94345.20
2018-05-09T06:13:12.144Z,94349.09
2018-05-09T06:15:45.415Z,94350.09
2018-05-09T06:18:18.680Z,94349.16
2018-05-09T06:20:52.733Z,94343.34
2018-05-09T06:23:25.983Z,94346.16
2018-05-09T06:25:59.260Z,94343.52
2018-05-09T06:28:32.511Z,94341.30
2018-05-09T07:03:28.343Z,94344.52
2018-05-09T07:06:02.383Z,94355.04
2018-05-09T07:08:35.636Z,94361.07
2018-05-09T07:11:08.915Z,94363.22
2018-05-09T07:13:42.166Z,94364.70
2018-05-09T08:01:45.380Z,94373.24
2018-05-09T08:04:18.653Z,94370.70
2018-05-09T08:06:51.912Z,94374.08
2018-05-09T08:09:25.198Z,94370.81
2018-05-09T08:11:58.448Z,94374.58
2018-05-09T08:14:31.713Z,94366.81
2018-05-09T09:02:38.250Z,94359.25
2018-05-09T09:05:11.520Z,94365.48
2018-05-09T09:07:45.548Z,94363.88
2018-05-09T09:10:19.587Z,94357.14
2018-05-09T09:12:52.832Z,94363.97
2018-05-09T10:00:56.360Z,94337.84
2018-05-09T10:03:30.376Z,94342.70
2018-05-09T10:06:03.655Z,94338.64
2018-05-09T10:08:36.911Z,94335.27
2018-05-09T10:11:10.192Z,94334.99
2018-05-09T10:13:43.447Z,94333.77
2018-05-09T11:01:46.188Z,94320.76
2018-05-09T11:04:19.456Z,94322.22
2018-05-09T11:06:52.720Z,94324.47
2018-05-09T11:09:26.753Z,94317.17
2018-05-09T11:12:00.013Z,94319.57
2018-05-09T11:14:34.060Z,94323.60
2018-05-09T12:02:38.542Z,94274.09
2018-05-09T12:05:11.745Z,94277.94
2018-05-09T12:07:45.015Z,94274.02
2018-05-09T12:10:18.414Z,94279.14
2018-05-09T12:12:51.640Z,94275.70
2018-05-09T13:00:59.966Z,94241.14
2018-05-09T13:03:33.245Z,94233.05
2018-05-09T13:06:07.255Z,94231.95
2018-05-09T13:08:41.300Z,94228.03
2018-05-09T13:11:14.552Z,94211.08
2018-05-09T13:13:47.850Z,94218.80
2018-05-09T14:01:54.187Z,94219.62
2018-05-09T14:04:28.239Z,94222.93
2018-05-09T14:07:01.496Z,94223.92
2018-05-09T14:09:34.763Z,94228.83
2018-05-09T14:12:08.036Z,94227.80
2018-05-09T14:14:41.313Z,94245.87
2018-05-09T14:46:30.559Z,94252.48
2018-05-09T14:49:03.812Z,94243.23
2018-05-09T14:51:37.862Z,94239.56
2018-05-09T14:54:11.132Z,94236.81
2018-05-09T14:56:44.564Z,94248.30
2018-05-09T14:59:17.820Z,94244.06
2018-05-09T15:31:07.553Z,94234.81
2018-05-09T15:33:40.825Z,94226.41
2018-05-09T15:36:14.080Z,94225.66
2018-05-09T15:38:47.486Z,94226.44
2018-05-09T15:41:21.418Z,94229.21
2018-05-09T15:43:55.563Z,94225.73
2018-05-09T15:46:28.816Z,94223.48
2018-05-09T15:49:02.855Z,94222.34
2018-05-09T15:51:36.111Z,94233.97
2018-05-09T15:54:09.388Z,94225.47
2018-05-09T15:56:42.666Z,94224.02
2018-05-09T15:59:15.938Z,94217.05
2018-05-09T16:01:49.290Z,94220.70
2018-05-09T16:04:22.565Z,94223.30
2018-05-09T16:06:55.901Z,94226.88
2018-05-09T16:09:30.006Z,94219.58
2018-05-09T16:12:03.395Z,94216.87
2018-05-09T16:15:02.112Z,94213.42
2018-05-09T16:17:35.743Z,94211.27
2018-05-09T16:20:09.036Z,94206.95
2018-05-09T16:22:44.844Z,94206.47
2018-05-09T16:25:18.569Z,94206.23
2018-05-09T16:27:55.872Z,94205.83
2018-05-09T16:30:29.272Z,94209.80
2018-05-09T16:33:07.522Z,94207.34
2018-05-09T16:35:40.800Z,94206.33
2018-05-09T16:38:14.059Z,94197.05
2018-05-09T16:40:48.103Z,94203.11
2018-05-09T16:43:21.352Z,94210.33
2018-05-09T16:45:55.393Z,94205.36
2018-05-09T16:48:28.651Z,94204.07
2018-05-09T16:51:01.928Z,94206.72
2018-05-09T16:53:35.188Z,94209.08
2018-05-09T16:56:08.567Z,94206.87
2018-05-09T16:58:41.831Z,94205.27
2018-05-09T17:01:15.118Z,94204.78
2018-05-09T17:03:48.446Z,94203.42
2018-05-09T17:06:21.733Z,94202.95
2018-05-09T17:08:54.993Z,94199.70
2018-05-09T17:11:28.384Z,94195.19
2018-05-09T17:14:01.656Z,94195.02
2018-05-09T17:16:34.931Z,94197.73
2018-05-09T17:19:08.246Z,94192.77
2018-05-09T17:22:04.789Z,94192.93
2018-05-09T17:24:38.104Z,94191.13
2018-05-09T17:27:11.377Z,94197.50
2018-05-09T17:29:44.659Z,94189.31
2018-05-09T17:32:18.090Z,94195.42
2018-05-09T17:34:51.340Z,94193.09
2018-05-09T17:37:25.505Z,94192.53
2018-05-09T17:39:58.761Z,94196.09
2018-05-09T17:42:32.058Z,94197.04
2018-05-09T17:45:05.306Z,94201.33
2018-05-09T17:47:39.345Z,94203.65
2018-05-09T17:50:12.617Z,94202.67
2018-05-09T17:52:46.652Z,94209.10
2018-05-09T17:55:19.929Z,94208.08
2018-05-09T17:57:53.967Z,94216.83
2018-05-09T18:00:27.921Z,94215.36
2018-05-09T18:03:01.235Z,94219.70
2018-05-09T18:05:34.541Z,94216.09
2018-05-09T18:08:08.692Z,94228.14
2018-05-09T18:10:41.949Z,94220.17
2018-05-09T18:13:16.007Z,94227.64
2018-05-09T18:15:49.260Z,94229.84
2018-05-09T18:18:22.861Z,94223.61
2018-05-09T18:20:56.121Z,94230.37
2018-05-09T18:23:29.449Z,94237.78
2018-05-09T18:26:03.473Z,94225.52
2018-05-09T18:28:36.745Z,94226.45
2018-05-09T18:31:10.773Z,94231.68
2018-05-09T18:33:44.060Z,94235.39
2018-05-09T18:36:17.320Z,94237.36
2018-05-09T18:38:50.598Z,94234.50
2018-05-09T18:41:23.867Z,94239.72
2018-05-09T18:43:57.245Z,94249.91
2018-05-09T18:46:30.504Z,94240.70
2018-05-09T18:49:03.799Z,94247.31
2018-05-09T18:51:37.061Z,94247.92
2018-05-09T18:54:11.293Z,94253.35
2018-05-09T18:56:44.516Z,94253.15
2018-05-09T18:59:17.809Z,94250.78
2018-05-09T19:01:51.827Z,94254.98
2018-05-09T19:04:25.247Z,94257.34
2018-05-09T19:06:59.236Z,94259.29
2018-05-09T19:09:33.293Z,94257.16
2018-05-09T19:12:06.703Z,94265.20
2018-05-09T19:14:40.055Z,94272.76
2018-05-09T19:17:14.065Z,94273.52
2018-05-09T19:19:47.333Z,94272.44
2018-05-09T19:22:21.356Z,94275.52
2018-05-09T19:24:55.406Z,94270.11
2018-05-09T19:27:28.652Z,94270.40
2018-05-09T19:30:01.946Z,94276.13
2018-05-09T19:32:36.044Z,94276.05
2018-05-09T19:35:09.360Z,94282.02
2018-05-09T19:37:43.392Z,94275.13
2018-05-09T19:40:16.759Z,94285.17
2018-05-09T19:42:50.013Z,94280.05
2018-05-09T19:45:23.285Z,94281.16
2018-05-09T19:47:56.558Z,94281.29
2018-05-09T19:50:29.816Z,94282.77
2018-05-09T19:53:03.067Z,94280.64
2018-05-09T19:55:36.377Z,94284.29
2018-05-09T19:58:09.643Z,94283.09
2018-05-09T20:00:42.915Z,94282.02
2018-05-09T20:03:16.944Z,94281.87
2018-05-09T20:05:50.220Z,94274.99
2018-05-09T20:08:23.473Z,94278.66
2018-05-09T20:10:56.743Z,94281.88
2018-05-09T20:13:30.016Z,94288.06
2018-05-09T20:16:03.300Z,94285.09
2018-05-09T20:18:36.564Z,94287.77
2018-05-09T20:21:09.839Z,94281.41
2018-05-09T20:23:43.177Z,94283.83
2018-05-09T20:26:16.384Z,94286.37
2018-05-09T20:28:55.991Z,94288.23
2018-05-09T20:31:52.636Z,94289.98
2018-05-09T20:34:25.894Z,94287.77
2018-05-09T20:36:59.169Z,94288.44
2018-05-09T20:39:32.427Z,94289.11
2018-05-09T20:42:05.695Z,94285.97
2018-05-09T20:44:38.968Z,94287.05
2018-05-09T20:47:12.351Z,94289.03
2018-05-09T20:49:45.616Z,94290.23
2018-05-09T20:52:19.653Z,94291.11
2018-05-09T20:54:52.923Z,94286.66
2018-05-09T20:57:26.961Z,94289.31
2018-05-09T21:00:00.232Z,94281.90
2018-05-09T21:02:33.637Z,94283.82
2018-05-09T21:05:06.900Z,94288.25
2018-05-09T21:07:55.961Z,94293.36
2018-05-09T21:10:29.228Z,94299.01
2018-05-09T21:13:02.500Z,94299.42
2018-05-09T21:15:35.817Z,94292.29
2018-05-09T21:18:09.061Z,94292.55
2018-05-09T21:20:43.076Z,94296.98
2018-05-09T21:23:17.120Z,94296.12
2018-05-09T21:25:50.403Z,94300.49
2018-05-09T21:28:23.676Z,94301.36
2018-05-09T21:30:57.704Z,94296.53
2018-05-09T21:33:30.981Z,94298.10
2018-05-09T21:36:05.022Z,94300.37
2018-05-09T21:38:38.295Z,94305.81
2018-05-09T21:41:11.558Z,94305.91
2018-05-09T21:43:44.831Z,94304.66
2018-05-09T21:46:18.122Z,94305.57
2018-05-09T21:48:51.400Z,94314.09
2018-05-09T21:51:24.684Z,94317.61
2018-05-09T21:53:57.952Z,94315.34
2018-05-09T21:56:31.971Z,94311.87
2018-05-09T21:59:05.262Z,94315.83
2018-05-09T22:01:39.278Z,94322.38
2018-05-09T22:04:12.565Z,94320.08
2018-05-09T22:06:46.591Z,94321.63
2018-05-09T22:09:19.868Z,94319.47
2018-05-09T22:11:53.148Z,94319.60
2018-05-09T22:14:26.667Z,94317.31
2018-05-09T22:16:59.987Z,94314.77
2018-05-09T22:19:33.311Z,94311.02
2018-05-09T22:22:06.564Z,94315.52
2018-05-09T22:24:39.843Z,94312.09
2018-05-09T22:27:13.860Z,94308.81
2018-05-09T22:29:47.176Z,94311.27
2018-05-09T22:32:20.429Z,94303.05
2018-05-09T22:34:54.581Z,94306.63
2018-05-09T22:37:27.853Z,94310.34
2018-05-09T22:40:01.134Z,94308.53
2018-05-09T22:42:35.149Z,94302.87
2018-05-09T22:45:08.437Z,94305.41
2018-05-09T22:47:41.701Z,94293.32
2018-05-09T22:50:14.973Z,94294.80
2018-05-09T22:52:48.227Z,94290.38
2018-05-09T22:55:21.501Z,94291.38
2018-05-09T22:57:54.752Z,94298.88
2018-05-09T23:00:28.140Z,94296.44
2018-05-09T23:03:01.401Z,94295.84
2018-05-09T23:05:34.679Z,94289.64
2018-05-09T23:08:07.940Z,94292.25
2018-05-09T23:10:41.361Z,94296.05
2018-05-09T23:13:14.533Z,94290.43
